Terminal Aerodrome Forecast
Issued by NWS

Home | Current Version | Previous Version | Text Only | Print | Product List | Glossary On
Versions: 1 2 3 4 5 6 7 8 9 10 11 12 13 14 15
000
FTUS43 KMPX 272343
TAFAXN
TAF
KAXN 272343Z 2800/2824 18008KT P6SM BKN035
     FM280100 15006KT P6SM SCT030 SCT200
     FM280900 14006KT 4SM BR SCT070 BKN100
     FM281300 13006KT 6SM BR SCT012 BKN030
     FM281500 16007KT P6SM SCT025 BKN100=

USA.gov is the U.S. government's official web portal to all federal, state and local government web resources and services.